sensor_id;sensor_type;location;lat;lon;timestamp;noise_LAeq;noise_LA_min;noise_LA_max;noise_LA01;noise_LA95
69670;Laerm;56897;52.120;5.192;2022-10-22T00:00:24;44.31;42.55;47.19;;
69670;Laerm;56897;52.120;5.192;2022-10-22T00:00:55;45.09;42.35;60.96;;
69670;Laerm;56897;52.120;5.192;2022-10-22T00:01:27;44.09;42.30;52.80;;
69670;Laerm;56897;52.120;5.192;2022-10-22T00:02:01;44.03;42.37;51.30;;
69670;Laerm;56897;52.120;5.192;2022-10-22T00:02:32;45.17;42.41;67.51;;
69670;Laerm;56897;52.120;5.192;2022-10-22T00:03:04;43.69;42.16;45.70;;
69670;Laerm;56897;52.120;5.192;2022-10-22T00:03:36;44.12;42.19;48.80;;
69670;Laerm;56897;52.120;5.192;2022-10-22T00:04:08;43.97;42.02;51.44;;
69670;Laerm;56897;52.120;5.192;2022-10-22T00:04:41;43.67;41.52;53.88;;
69670;Laerm;56897;52.120;5.192;2022-10-22T00:05:14;44.51;42.07;56.07;;
69670;Laerm;56897;52.120;5.192;2022-10-22T00:05:46;44.52;42.50;47.49;;
69670;Laerm;56897;52.120;5.192;2022-10-22T00:06:19;43.93;42.02;54.52;;
69670;Laerm;56897;52.120;5.192;2022-10-22T00:06:50;45.38;42.90;57.90;;
69670;Laerm;56897;52.120;5.192;2022-10-22T00:07:22;44.72;41.64;63.82;;
69670;Laerm;56897;52.120;5.192;2022-10-22T00:07:55;44.30;41.71;58.13;;
69670;Laerm;56897;52.120;5.192;2022-10-22T00:08:26;43.49;41.66;45.13;;
69670;Laerm;56897;52.120;5.192;2022-10-22T00:08:58;43.79;42.03;45.48;;
69670;Laerm;56897;52.120;5.192;2022-10-22T00:09:30;46.18;42.35;69.26;;
69670;Laerm;56897;52.120;5.192;2022-10-22T00:10:04;44.07;42.58;46.47;;
69670;Laerm;56897;52.120;5.192;2022-10-22T00:10:36;44.00;42.15;52.68;;
69670;Laerm;56897;52.120;5.192;2022-10-22T00:11:11;44.58;42.59;56.79;;
69670;Laerm;56897;52.120;5.192;2022-10-22T00:11:42;45.12;42.89;55.95;;
69670;Laerm;56897;52.120;5.192;2022-10-22T00:12:15;45.85;43.62;59.36;;
69670;Laerm;56897;52.120;5.192;2022-10-22T00:12:52;45.00;42.63;53.45;;
69670;Laerm;56897;52.120;5.192;2022-10-22T00:13:23;45.69;43.39;61.59;;
69670;Laerm;56897;52.120;5.192;2022-10-22T00:13:56;46.32;43.12;62.82;;
69670;Laerm;56897;52.120;5.192;2022-10-22T00:14:29;47.39;43.21;72.64;;
69670;Laerm;56897;52.120;5.192;2022-10-22T00:15:00;44.59;42.87;49.36;;
69670;Laerm;56897;52.120;5.192;2022-10-22T00:15:33;44.82;42.90;57.21;;
69670;Laerm;56897;52.120;5.192;2022-10-22T00:16:06;48.10;43.47;71.50;;
69670;Laerm;56897;52.120;5.192;2022-10-22T00:16:37;44.25;42.31;50.56;;
69670;Laerm;56897;52.120;5.192;2022-10-22T00:17:09;44.05;42.10;49.53;;
69670;Laerm;56897;52.120;5.192;2022-10-22T00:17:42;45.66;42.37;63.85;;
69670;Laerm;56897;52.120;5.192;2022-10-22T00:18:13;44.16;42.25;52.80;;
69670;Laerm;56897;52.120;5.192;2022-10-22T00:18:45;44.10;42.00;50.81;;
69670;Laerm;56897;52.120;5.192;2022-10-22T00:19:17;45.69;42.25;62.59;;
69670;Laerm;56897;52.120;5.192;2022-10-22T00:19:49;49.18;42.24;72.08;;
69670;Laerm;56897;52.120;5.192;2022-10-22T00:20:22;44.82;42.91;51.26;;
69670;Laerm;56897;52.120;5.192;2022-10-22T00:20:55;44.60;41.87;62.10;;
69670;Laerm;56897;52.120;5.192;2022-10-22T00:21:26;44.35;42.15;58.51;;
69670;Laerm;56897;52.120;5.192;2022-10-22T00:21:59;44.76;42.91;55.41;;
69670;Laerm;56897;52.120;5.192;2022-10-22T00:22:35;44.36;42.14;49.96;;
69670;Laerm;56897;52.120;5.192;2022-10-22T00:23:07;45.02;42.76;59.94;;
69670;Laerm;56897;52.120;5.192;2022-10-22T00:23:39;45.49;43.18;62.04;;
69670;Laerm;56897;52.120;5.192;2022-10-22T00:24:12;47.77;42.74;68.83;;
69670;Laerm;56897;52.120;5.192;2022-10-22T00:24:44;45.06;42.44;57.23;;
69670;Laerm;56897;52.120;5.192;2022-10-22T00:25:15;45.57;42.56;57.59;;
69670;Laerm;56897;52.120;5.192;2022-10-22T00:25:48;44.44;42.48;56.41;;
69670;Laerm;56897;52.120;5.192;2022-10-22T00:26:20;44.27;42.10;53.57;;
69670;Laerm;56897;52.120;5.192;2022-10-22T00:26:51;44.28;42.73;52.04;;
69670;Laerm;56897;52.120;5.192;2022-10-22T00:27:25;44.44;42.66;56.41;;
69670;Laerm;56897;52.120;5.192;2022-10-22T00:27:57;43.96;42.41;49.89;;
69670;Laerm;56897;52.120;5.192;2022-10-22T00:28:28;44.20;41.99;57.16;;
69670;Laerm;56897;52.120;5.192;2022-10-22T00:29:01;44.08;42.25;46.27;;
69670;Laerm;56897;52.120;5.192;2022-10-22T00:29:32;44.43;42.44;52.98;;
69670;Laerm;56897;52.120;5.192;2022-10-22T00:30:06;44.65;42.57;51.92;;
69670;Laerm;56897;52.120;5.192;2022-10-22T00:30:39;44.82;42.47;58.74;;
69670;Laerm;56897;52.120;5.192;2022-10-22T00:31:10;44.09;42.57;46.43;;
69670;Laerm;56897;52.120;5.192;2022-10-22T00:31:42;45.18;42.80;58.14;;
69670;Laerm;56897;52.120;5.192;2022-10-22T00:32:19;44.53;42.41;51.35;;
69670;Laerm;56897;52.120;5.192;2022-10-22T00:32:51;44.38;42.85;51.46;;
69670;Laerm;56897;52.120;5.192;2022-10-22T00:33:22;44.78;42.95;49.53;;
69670;Laerm;56897;52.120;5.192;2022-10-22T00:33:55;46.26;43.00;64.26;;
69670;Laerm;56897;52.120;5.192;2022-10-22T00:34:27;45.19;43.21;56.82;;
69670;Laerm;56897;52.120;5.192;2022-10-22T00:34:58;44.79;42.62;53.85;;
69670;Laerm;56897;52.120;5.192;2022-10-22T00:35:39;44.77;42.26;60.68;;
69670;Laerm;56897;52.120;5.192;2022-10-22T00:36:10;46.73;43.66;59.81;;
69670;Laerm;56897;52.120;5.192;2022-10-22T00:36:43;46.89;43.24;56.44;;
69670;Laerm;56897;52.120;5.192;2022-10-22T00:37:20;46.48;42.54;54.46;;
69670;Laerm;56897;52.120;5.192;2022-10-22T00:37:51;46.77;43.32;54.51;;
69670;Laerm;56897;52.120;5.192;2022-10-22T00:38:23;44.59;42.44;47.39;;
69670;Laerm;56897;52.120;5.192;2022-10-22T00:38:56;44.33;42.39;49.46;;
69670;Laerm;56897;52.120;5.192;2022-10-22T00:39:27;46.91;42.53;70.29;;
69670;Laerm;56897;52.120;5.192;2022-10-22T00:40:00;44.18;41.68;57.60;;
69670;Laerm;56897;52.120;5.192;2022-10-22T00:40:32;46.31;42.20;66.96;;
69670;Laerm;56897;52.120;5.192;2022-10-22T00:41:04;46.12;42.09;69.77;;
69670;Laerm;56897;52.120;5.192;2022-10-22T00:41:36;43.89;41.92;47.39;;
69670;Laerm;56897;52.120;5.192;2022-10-22T00:42:10;45.45;42.43;55.50;;
69670;Laerm;56897;52.120;5.192;2022-10-22T00:42:42;44.77;42.57;53.97;;
69670;Laerm;56897;52.120;5.192;2022-10-22T00:43:15;46.39;42.03;63.38;;
69670;Laerm;56897;52.120;5.192;2022-10-22T00:43:57;45.29;42.79;65.87;;
69670;Laerm;56897;52.120;5.192;2022-10-22T00:44:59;44.51;42.60;59.31;;
69670;Laerm;56897;52.120;5.192;2022-10-22T00:45:31;45.17;42.55;61.64;;
69670;Laerm;56897;52.120;5.192;2022-10-22T00:46:04;44.10;42.52;47.55;;
69670;Laerm;56897;52.120;5.192;2022-10-22T00:46:35;44.27;42.28;48.45;;
69670;Laerm;56897;52.120;5.192;2022-10-22T00:47:07;44.74;42.68;51.83;;
69670;Laerm;56897;52.120;5.192;2022-10-22T00:47:41;44.72;42.53;47.64;;
69670;Laerm;56897;52.120;5.192;2022-10-22T00:48:15;45.67;42.79;57.61;;
69670;Laerm;56897;52.120;5.192;2022-10-22T00:48:49;50.06;43.86;70.89;;
69670;Laerm;56897;52.120;5.192;2022-10-22T00:49:21;47.25;43.40;59.96;;
69670;Laerm;56897;52.120;5.192;2022-10-22T00:49:53;45.75;42.38;68.03;;
69670;Laerm;56897;52.120;5.192;2022-10-22T00:50:28;59.75;45.71;82.65;;
69670;Laerm;56897;52.120;5.192;2022-10-22T00:51:04;50.68;43.51;66.66;;
69670;Laerm;56897;52.120;5.192;2022-10-22T00:51:38;44.87;42.64;50.58;;
69670;Laerm;56897;52.120;5.192;2022-10-22T00:52:09;46.45;43.00;68.64;;
69670;Laerm;56897;52.120;5.192;2022-10-22T00:52:41;46.05;42.90;60.88;;
69670;Laerm;56897;52.120;5.192;2022-10-22T00:53:15;47.72;43.94;56.68;;
69670;Laerm;56897;52.120;5.192;2022-10-22T00:53:51;45.70;42.68;58.37;;
69670;Laerm;56897;52.120;5.192;2022-10-22T00:54:26;45.67;42.56;59.71;;
69670;Laerm;56897;52.120;5.192;2022-10-22T00:54:59;44.42;42.60;48.06;;
69670;Laerm;56897;52.120;5.192;2022-10-22T00:55:31;44.49;42.68;48.54;;
69670;Laerm;56897;52.120;5.192;2022-10-22T00:56:06;45.98;43.47;60.70;;
69670;Laerm;56897;52.120;5.192;2022-10-22T00:56:38;47.31;43.09;64.03;;
69670;Laerm;56897;52.120;5.192;2022-10-22T00:57:10;45.19;43.42;48.00;;
69670;Laerm;56897;52.120;5.192;2022-10-22T00:57:42;46.82;43.25;67.71;;
69670;Laerm;56897;52.120;5.192;2022-10-22T00:58:15;53.55;45.02;78.11;;
69670;Laerm;56897;52.120;5.192;2022-10-22T00:58:48;46.12;43.04;61.50;;
69670;Laerm;56897;52.120;5.192;2022-10-22T00:59:20;46.22;42.41;64.93;;
69670;Laerm;56897;52.120;5.192;2022-10-22T00:59:53;55.26;42.78;80.46;;
69670;Laerm;56897;52.120;5.192;2022-10-22T01:00:26;60.00;44.05;75.22;;
69670;Laerm;56897;52.120;5.192;2022-10-22T01:01:00;49.20;42.92;66.92;;
69670;Laerm;56897;52.120;5.192;2022-10-22T01:01:32;45.54;42.71;58.62;;
69670;Laerm;56897;52.120;5.192;2022-10-22T01:02:03;45.87;43.37;58.83;;
69670;Laerm;56897;52.120;5.192;2022-10-22T01:02:36;48.01;44.24;72.26;;
69670;Laerm;56897;52.120;5.192;2022-10-22T01:03:08;47.70;44.72;59.39;;
69670;Laerm;56897;52.120;5.192;2022-10-22T01:03:39;47.09;43.26;60.51;;
69670;Laerm;56897;52.120;5.192;2022-10-22T01:04:12;59.06;42.69;81.78;;
69670;Laerm;56897;52.120;5.192;2022-10-22T01:04:44;45.63;43.13;58.27;;
69670;Laerm;56897;52.120;5.192;2022-10-22T01:05:15;48.87;43.69;67.59;;
69670;Laerm;56897;52.120;5.192;2022-10-22T01:05:51;46.28;42.82;61.77;;
69670;Laerm;56897;52.120;5.192;2022-10-22T01:06:28;44.68;42.41;47.70;;
69670;Laerm;56897;52.120;5.192;2022-10-22T01:07:01;45.03;43.20;54.16;;
69670;Laerm;56897;52.120;5.192;2022-10-22T01:07:34;47.44;43.33;67.58;;
69670;Laerm;56897;52.120;5.192;2022-10-22T01:08:13;48.00;43.33;69.73;;
69670;Laerm;56897;52.120;5.192;2022-10-22T01:08:51;47.49;44.63;52.55;;
69670;Laerm;56897;52.120;5.192;2022-10-22T01:09:29;45.64;43.64;52.72;;
69670;Laerm;56897;52.120;5.192;2022-10-22T01:10:06;45.42;42.72;57.81;;
69670;Laerm;56897;52.120;5.192;2022-10-22T01:10:45;45.34;43.25;47.99;;
69670;Laerm;56897;52.120;5.192;2022-10-22T01:11:24;46.97;43.90;65.02;;
69670;Laerm;56897;52.120;5.192;2022-10-22T01:12:02;45.57;43.24;57.98;;
69670;Laerm;56897;52.120;5.192;2022-10-22T01:12:42;47.81;43.11;62.50;;
69670;Laerm;56897;52.120;5.192;2022-10-22T01:13:25;49.96;44.08;68.75;;
69670;Laerm;56897;52.120;5.192;2022-10-22T01:14:15;47.08;43.19;63.05;;
69670;Laerm;56897;52.120;5.192;2022-10-22T01:14:59;48.29;44.06;64.73;;
69670;Laerm;56897;52.120;5.192;2022-10-22T01:15:37;49.04;44.14;66.10;;
69670;Laerm;56897;52.120;5.192;2022-10-22T01:16:16;46.88;43.49;52.27;;
69670;Laerm;56897;52.120;5.192;2022-10-22T01:16:57;49.54;43.12;63.59;;
69670;Laerm;56897;52.120;5.192;2022-10-22T01:17:31;47.77;43.88;58.37;;
69670;Laerm;56897;52.120;5.192;2022-10-22T01:18:08;45.66;43.07;50.38;;
69670;Laerm;56897;52.120;5.192;2022-10-22T01:18:47;47.41;43.64;66.76;;
69670;Laerm;56897;52.120;5.192;2022-10-22T01:19:44;46.62;43.72;64.74;;
69670;Laerm;56897;52.120;5.192;2022-10-22T01:20:46;47.61;44.64;59.80;;
69670;Laerm;56897;52.120;5.192;2022-10-22T01:21:25;45.85;42.62;59.84;;
69670;Laerm;56897;52.120;5.192;2022-10-22T01:22:06;45.78;43.58;53.78;;
69670;Laerm;56897;52.120;5.192;2022-10-22T01:22:41;47.88;43.56;72.76;;
69670;Laerm;56897;52.120;5.192;2022-10-22T01:23:47;45.77;43.73;54.14;;
69670;Laerm;56897;52.120;5.192;2022-10-22T01:24:33;45.62;43.28;56.83;;
69670;Laerm;56897;52.120;5.192;2022-10-22T01:25:07;45.82;43.56;54.04;;
69670;Laerm;56897;52.120;5.192;2022-10-22T01:25:46;47.08;44.18;58.73;;
69670;Laerm;56897;52.120;5.192;2022-10-22T01:26:26;46.66;44.42;50.46;;
69670;Laerm;56897;52.120;5.192;2022-10-22T01:27:55;46.34;43.28;61.16;;
69670;Laerm;56897;52.120;5.192;2022-10-22T01:28:47;45.61;42.59;56.09;;
69670;Laerm;56897;52.120;5.192;2022-10-22T01:29:23;46.00;43.64;58.34;;
69670;Laerm;56897;52.120;5.192;2022-10-22T01:29:59;45.69;43.25;60.07;;
69670;Laerm;56897;52.120;5.192;2022-10-22T01:30:32;46.64;44.21;56.98;;
69670;Laerm;56897;52.120;5.192;2022-10-22T01:31:06;47.92;43.49;73.16;;
69670;Laerm;56897;52.120;5.192;2022-10-22T01:31:40;44.48;42.67;48.66;;
69670;Laerm;56897;52.120;5.192;2022-10-22T01:32:15;45.07;42.31;60.86;;
69670;Laerm;56897;52.120;5.192;2022-10-22T01:32:49;44.55;42.68;56.84;;
69670;Laerm;56897;52.120;5.192;2022-10-22T01:33:23;44.57;42.53;53.29;;
69670;Laerm;56897;52.120;5.192;2022-10-22T01:33:55;44.55;42.27;48.53;;
69670;Laerm;56897;52.120;5.192;2022-10-22T01:34:29;45.95;43.28;65.54;;
69670;Laerm;56897;52.120;5.192;2022-10-22T01:35:05;46.82;43.68;68.35;;
69670;Laerm;56897;52.120;5.192;2022-10-22T01:35:41;47.10;43.32;68.38;;
69670;Laerm;56897;52.120;5.192;2022-10-22T01:36:13;45.26;42.77;47.96;;
69670;Laerm;56897;52.120;5.192;2022-10-22T01:36:47;46.18;42.75;56.84;;
69670;Laerm;56897;52.120;5.192;2022-10-22T01:37:20;44.64;42.73;57.74;;
69670;Laerm;56897;52.120;5.192;2022-10-22T01:37:55;44.81;42.61;49.13;;
69670;Laerm;56897;52.120;5.192;2022-10-22T01:38:30;44.99;42.64;48.66;;
69670;Laerm;56897;52.120;5.192;2022-10-22T01:39:02;44.76;42.84;47.39;;
69670;Laerm;56897;52.120;5.192;2022-10-22T01:39:36;46.58;43.80;61.81;;
69670;Laerm;56897;52.120;5.192;2022-10-22T01:40:11;45.08;43.01;56.97;;
69670;Laerm;56897;52.120;5.192;2022-10-22T01:40:45;46.00;43.15;58.39;;
69670;Laerm;56897;52.120;5.192;2022-10-22T01:41:17;47.33;44.36;50.87;;
69670;Laerm;56897;52.120;5.192;2022-10-22T01:41:53;46.73;43.97;58.71;;
69670;Laerm;56897;52.120;5.192;2022-10-22T01:42:25;46.00;43.77;60.40;;
69670;Laerm;56897;52.120;5.192;2022-10-22T01:42:57;46.24;43.84;51.64;;
69670;Laerm;56897;52.120;5.192;2022-10-22T01:43:31;45.81;43.75;55.00;;
69670;Laerm;56897;52.120;5.192;2022-10-22T01:44:04;45.07;42.97;51.31;;
69670;Laerm;56897;52.120;5.192;2022-10-22T01:44:36;47.14;44.01;64.09;;
69670;Laerm;56897;52.120;5.192;2022-10-22T01:45:12;44.71;42.54;48.80;;
69670;Laerm;56897;52.120;5.192;2022-10-22T01:45:50;45.96;43.18;65.66;;
69670;Laerm;56897;52.120;5.192;2022-10-22T01:46:23;46.31;42.84;66.54;;
69670;Laerm;56897;52.120;5.192;2022-10-22T01:47:06;57.61;43.43;83.52;;
69670;Laerm;56897;52.120;5.192;2022-10-22T01:47:48;47.26;42.98;61.09;;
69670;Laerm;56897;52.120;5.192;2022-10-22T01:48:33;45.02;42.84;52.06;;
69670;Laerm;56897;52.120;5.192;2022-10-22T01:49:13;44.66;42.83;47.23;;
69670;Laerm;56897;52.120;5.192;2022-10-22T01:50:04;46.59;43.56;65.34;;
69670;Laerm;56897;52.120;5.192;2022-10-22T01:50:50;45.26;43.34;51.76;;
69670;Laerm;56897;52.120;5.192;2022-10-22T01:51:33;45.39;43.28;50.74;;
69670;Laerm;56897;52.120;5.192;2022-10-22T01:52:14;45.35;43.04;52.21;;
69670;Laerm;56897;52.120;5.192;2022-10-22T01:52:55;45.75;42.90;62.39;;
69670;Laerm;56897;52.120;5.192;2022-10-22T01:53:33;45.38;43.53;56.36;;
69670;Laerm;56897;52.120;5.192;2022-10-22T01:54:16;44.91;43.02;52.34;;
69670;Laerm;56897;52.120;5.192;2022-10-22T01:54:55;44.84;42.40;59.80;;
69670;Laerm;56897;52.120;5.192;2022-10-22T01:55:32;44.68;42.35;63.10;;
69670;Laerm;56897;52.120;5.192;2022-10-22T01:56:22;45.13;42.77;60.65;;
69670;Laerm;56897;52.120;5.192;2022-10-22T01:57:06;47.95;42.96;69.90;;
69670;Laerm;56897;52.120;5.192;2022-10-22T01:57:42;48.77;42.47;72.89;;
69670;Laerm;56897;52.120;5.192;2022-10-22T01:58:19;44.04;42.16;48.17;;
69670;Laerm;56897;52.120;5.192;2022-10-22T01:59:01;44.63;42.50;48.74;;
69670;Laerm;56897;52.120;5.192;2022-10-22T01:59:43;45.83;42.83;67.72;;
69670;Laerm;56897;52.120;5.192;2022-10-22T02:00:19;45.57;43.20;49.73;;
69670;Laerm;56897;52.120;5.192;2022-10-22T02:00:55;45.56;43.36;51.85;;
69670;Laerm;56897;52.120;5.192;2022-10-22T02:01:31;44.61;42.85;53.42;;
69670;Laerm;56897;52.120;5.192;2022-10-22T02:02:12;45.10;42.83;48.97;;
69670;Laerm;56897;52.120;5.192;2022-10-22T02:02:50;45.85;42.90;60.60;;
69670;Laerm;56897;52.120;5.192;2022-10-22T02:03:28;44.38;42.86;50.43;;
69670;Laerm;56897;52.120;5.192;2022-10-22T02:04:06;44.91;42.38;59.30;;
69670;Laerm;56897;52.120;5.192;2022-10-22T02:04:43;47.95;42.81;70.04;;
69670;Laerm;56897;52.120;5.192;2022-10-22T02:05:20;44.78;42.56;50.11;;
69670;Laerm;56897;52.120;5.192;2022-10-22T02:05:55;44.55;42.73;47.50;;
69670;Laerm;56897;52.120;5.192;2022-10-22T02:06:29;44.70;42.48;56.22;;
69670;Laerm;56897;52.120;5.192;2022-10-22T02:07:04;44.29;42.22;53.26;;
69670;Laerm;56897;52.120;5.192;2022-10-22T02:07:40;44.78;42.62;47.67;;
69670;Laerm;56897;52.120;5.192;2022-10-22T02:08:16;44.63;42.74;47.13;;
69670;Laerm;56897;52.120;5.192;2022-10-22T02:08:50;44.05;42.29;47.15;;
69670;Laerm;56897;52.120;5.192;2022-10-22T02:09:25;44.19;42.33;51.49;;
69670;Laerm;56897;52.120;5.192;2022-10-22T02:09:59;44.46;42.43;60.85;;
69670;Laerm;56897;52.120;5.192;2022-10-22T02:10:31;44.48;42.66;51.54;;
69670;Laerm;56897;52.120;5.192;2022-10-22T02:11:04;45.40;42.97;54.17;;
69670;Laerm;56897;52.120;5.192;2022-10-22T02:11:37;46.34;43.38;52.47;;
69670;Laerm;56897;52.120;5.192;2022-10-22T02:12:09;46.31;43.04;51.77;;
69670;Laerm;56897;52.120;5.192;2022-10-22T02:12:42;44.40;42.27;47.39;;
69670;Laerm;56897;52.120;5.192;2022-10-22T02:13:17;44.19;42.49;50.71;;
69670;Laerm;56897;52.120;5.192;2022-10-22T02:13:52;46.58;43.12;60.00;;
69670;Laerm;56897;52.120;5.192;2022-10-22T02:14:28;48.00;45.92;53.67;;
69670;Laerm;56897;52.120;5.192;2022-10-22T02:15:08;51.69;43.81;76.73;;
69670;Laerm;56897;52.120;5.192;2022-10-22T02:15:45;44.90;43.25;47.17;;
69670;Laerm;56897;52.120;5.192;2022-10-22T02:16:26;45.72;43.21;50.71;;
69670;Laerm;56897;52.120;5.192;2022-10-22T02:17:08;46.11;43.27;53.05;;
69670;Laerm;56897;52.120;5.192;2022-10-22T02:17:45;47.19;44.72;58.20;;
69670;Laerm;56897;52.120;5.192;2022-10-22T02:18:17;46.74;44.32;51.39;;
69670;Laerm;56897;52.120;5.192;2022-10-22T02:18:51;47.32;43.35;66.10;;
69670;Laerm;56897;52.120;5.192;2022-10-22T02:19:25;46.94;44.00;52.36;;
69670;Laerm;56897;52.120;5.192;2022-10-22T02:20:00;50.40;45.51;70.14;;
69670;Laerm;56897;52.120;5.192;2022-10-22T02:20:34;48.66;45.56;57.54;;
69670;Laerm;56897;52.120;5.192;2022-10-22T02:21:07;51.50;45.52;63.12;;
69670;Laerm;56897;52.120;5.192;2022-10-22T02:21:41;47.89;44.70;65.91;;
69670;Laerm;56897;52.120;5.192;2022-10-22T02:22:16;44.97;42.54;54.14;;
69670;Laerm;56897;52.120;5.192;2022-10-22T02:22:48;47.12;43.38;66.09;;
69670;Laerm;56897;52.120;5.192;2022-10-22T02:23:21;44.66;42.65;50.10;;
69670;Laerm;56897;52.120;5.192;2022-10-22T02:23:53;46.58;42.92;52.70;;
69670;Laerm;56897;52.120;5.192;2022-10-22T02:24:26;50.90;45.14;66.07;;
69670;Laerm;56897;52.120;5.192;2022-10-22T02:24:57;45.81;43.16;55.13;;
69670;Laerm;56897;52.120;5.192;2022-10-22T02:25:30;47.87;43.85;63.93;;
69670;Laerm;56897;52.120;5.192;2022-10-22T02:26:07;54.09;44.18;78.43;;
69670;Laerm;56897;52.120;5.192;2022-10-22T02:26:43;52.34;44.62;65.71;;
69670;Laerm;56897;52.120;5.192;2022-10-22T02:27:19;61.85;43.82;84.86;;
69670;Laerm;56897;52.120;5.192;2022-10-22T02:27:56;48.82;43.16;71.21;;
69670;Laerm;56897;52.120;5.192;2022-10-22T02:28:34;46.51;43.40;53.81;;
69670;Laerm;56897;52.120;5.192;2022-10-22T02:29:10;46.80;43.75;59.05;;
69670;Laerm;56897;52.120;5.192;2022-10-22T02:29:47;47.51;43.35;51.78;;
69670;Laerm;56897;52.120;5.192;2022-10-22T02:30:27;46.23;43.43;57.40;;
69670;Laerm;56897;52.120;5.192;2022-10-22T02:31:00;47.18;43.21;67.65;;
69670;Laerm;56897;52.120;5.192;2022-10-22T02:31:44;47.45;44.40;61.28;;
69670;Laerm;56897;52.120;5.192;2022-10-22T02:32:20;47.30;43.65;68.99;;
69670;Laerm;56897;52.120;5.192;2022-10-22T02:33:03;46.42;43.63;53.87;;
69670;Laerm;56897;52.120;5.192;2022-10-22T02:33:41;48.41;44.08;61.40;;
69670;Laerm;56897;52.120;5.192;2022-10-22T02:34:16;62.77;47.29;86.57;;
69670;Laerm;56897;52.120;5.192;2022-10-22T02:34:49;54.39;46.74;64.37;;
69670;Laerm;56897;52.120;5.192;2022-10-22T02:35:22;49.16;46.78;58.25;;
69670;Laerm;56897;52.120;5.192;2022-10-22T02:35:55;49.98;47.00;70.75;;
69670;Laerm;56897;52.120;5.192;2022-10-22T02:36:28;48.93;46.54;53.86;;
69670;Laerm;56897;52.120;5.192;2022-10-22T02:37:01;49.15;47.24;57.01;;
69670;Laerm;56897;52.120;5.192;2022-10-22T02:37:33;50.66;47.84;60.88;;
69670;Laerm;56897;52.120;5.192;2022-10-22T02:38:06;51.76;47.82;62.97;;
69670;Laerm;56897;52.120;5.192;2022-10-22T02:38:38;46.94;43.19;59.66;;
69670;Laerm;56897;52.120;5.192;2022-10-22T02:39:10;48.72;42.91;71.84;;
69670;Laerm;56897;52.120;5.192;2022-10-22T02:39:44;48.66;44.95;56.85;;
69670;Laerm;56897;52.120;5.192;2022-10-22T02:40:16;47.79;44.18;58.80;;
69670;Laerm;56897;52.120;5.192;2022-10-22T02:40:48;48.37;45.07;51.63;;
69670;Laerm;56897;52.120;5.192;2022-10-22T02:41:21;46.99;44.17;57.64;;
69670;Laerm;56897;52.120;5.192;2022-10-22T02:41:53;49.77;44.82;57.98;;
69670;Laerm;56897;52.120;5.192;2022-10-22T02:42:26;48.79;45.95;60.79;;
69670;Laerm;56897;52.120;5.192;2022-10-22T02:43:04;47.73;44.33;55.99;;
69670;Laerm;56897;52.120;5.192;2022-10-22T02:43:41;50.73;46.35;69.56;;
69670;Laerm;56897;52.120;5.192;2022-10-22T02:44:12;46.22;43.56;51.52;;
69670;Laerm;56897;52.120;5.192;2022-10-22T02:44:45;49.49;46.02;56.12;;
69670;Laerm;56897;52.120;5.192;2022-10-22T02:45:17;47.86;44.73;57.13;;
69670;Laerm;56897;52.120;5.192;2022-10-22T02:45:52;47.19;43.53;52.04;;
69670;Laerm;56897;52.120;5.192;2022-10-22T02:46:24;47.37;44.22;54.68;;
69670;Laerm;56897;52.120;5.192;2022-10-22T02:46:56;45.92;44.09;55.76;;
69670;Laerm;56897;52.120;5.192;2022-10-22T02:47:28;47.09;44.00;58.80;;
69670;Laerm;56897;52.120;5.192;2022-10-22T02:48:00;46.24;44.26;55.85;;
69670;Laerm;56897;52.120;5.192;2022-10-22T02:48:33;46.24;43.96;56.72;;
69670;Laerm;56897;52.120;5.192;2022-10-22T02:49:05;44.92;43.37;54.73;;
69670;Laerm;56897;52.120;5.192;2022-10-22T02:49:36;45.24;43.23;48.38;;
69670;Laerm;56897;52.120;5.192;2022-10-22T02:50:09;45.80;43.13;52.27;;
69670;Laerm;56897;52.120;5.192;2022-10-22T02:50:41;45.12;42.71;48.71;;
69670;Laerm;56897;52.120;5.192;2022-10-22T02:51:14;44.57;42.68;51.73;;
69670;Laerm;56897;52.120;5.192;2022-10-22T02:51:46;46.00;43.99;52.54;;
69670;Laerm;56897;52.120;5.192;2022-10-22T02:52:18;46.13;43.37;54.11;;
69670;Laerm;56897;52.120;5.192;2022-10-22T02:52:49;47.64;43.97;56.84;;
69670;Laerm;56897;52.120;5.192;2022-10-22T02:53:22;47.10;42.61;67.09;;
69670;Laerm;56897;52.120;5.192;2022-10-22T02:53:54;45.66;42.69;60.65;;
69670;Laerm;56897;52.120;5.192;2022-10-22T02:54:25;44.39;42.41;55.21;;
69670;Laerm;56897;52.120;5.192;2022-10-22T02:54:58;45.18;42.91;54.89;;
69670;Laerm;56897;52.120;5.192;2022-10-22T02:55:29;46.40;43.89;52.22;;
69670;Laerm;56897;52.120;5.192;2022-10-22T02:56:01;45.29;43.49;55.36;;
69670;Laerm;56897;52.120;5.192;2022-10-22T02:56:34;48.76;43.50;68.56;;
69670;Laerm;56897;52.120;5.192;2022-10-22T02:57:05;46.82;44.04;56.48;;
69670;Laerm;56897;52.120;5.192;2022-10-22T02:57:38;45.37;43.34;50.57;;
69670;Laerm;56897;52.120;5.192;2022-10-22T02:58:19;47.52;43.36;69.24;;
69670;Laerm;56897;52.120;5.192;2022-10-22T02:58:53;49.32;43.83;58.14;;
69670;Laerm;56897;52.120;5.192;2022-10-22T02:59:27;47.05;43.95;52.94;;
69670;Laerm;56897;52.120;5.192;2022-10-22T03:00:04;47.52;44.04;59.46;;
69670;Laerm;56897;52.120;5.192;2022-10-22T03:00:35;47.35;44.45;60.95;;
69670;Laerm;56897;52.120;5.192;2022-10-22T03:01:10;46.54;43.99;51.28;;
69670;Laerm;56897;52.120;5.192;2022-10-22T03:01:42;46.40;43.67;54.47;;
69670;Laerm;56897;52.120;5.192;2022-10-22T03:02:14;46.15;43.05;65.08;;
69670;Laerm;56897;52.120;5.192;2022-10-22T03:02:45;47.06;43.93;49.74;;
69670;Laerm;56897;52.120;5.192;2022-10-22T03:03:22;46.09;42.99;53.09;;
69670;Laerm;56897;52.120;5.192;2022-10-22T03:03:53;46.19;43.60;52.42;;
69670;Laerm;56897;52.120;5.192;2022-10-22T03:04:25;48.63;44.74;65.71;;
69670;Laerm;56897;52.120;5.192;2022-10-22T03:04:58;47.20;44.44;57.79;;
69670;Laerm;56897;52.120;5.192;2022-10-22T03:05:29;51.94;48.63;60.26;;
69670;Laerm;56897;52.120;5.192;2022-10-22T03:06:01;49.45;46.32;53.00;;
69670;Laerm;56897;52.120;5.192;2022-10-22T03:06:35;47.64;45.09;53.06;;
69670;Laerm;56897;52.120;5.192;2022-10-22T03:07:07;49.40;44.96;65.31;;
69670;Laerm;56897;52.120;5.192;2022-10-22T03:07:38;47.88;44.87;58.01;;
69670;Laerm;56897;52.120;5.192;2022-10-22T03:08:17;46.07;44.20;58.05;;
69670;Laerm;56897;52.120;5.192;2022-10-22T03:08:48;45.58;43.28;61.93;;
69670;Laerm;56897;52.120;5.192;2022-10-22T03:09:20;45.63;42.96;49.54;;
69670;Laerm;56897;52.120;5.192;2022-10-22T03:09:52;45.99;43.80;63.07;;
69670;Laerm;56897;52.120;5.192;2022-10-22T03:10:24;45.86;43.58;52.35;;
69670;Laerm;56897;52.120;5.192;2022-10-22T03:10:56;48.14;43.68;61.20;;
69670;Laerm;56897;52.120;5.192;2022-10-22T03:11:28;48.69;44.70;64.80;;
69670;Laerm;56897;52.120;5.192;2022-10-22T03:12:00;45.58;43.70;47.92;;
69670;Laerm;56897;52.120;5.192;2022-10-22T03:12:31;48.08;43.52;53.09;;
69670;Laerm;56897;52.120;5.192;2022-10-22T03:13:06;47.74;44.17;57.29;;
69670;Laerm;56897;52.120;5.192;2022-10-22T03:13:38;46.94;43.27;67.56;;
69670;Laerm;56897;52.120;5.192;2022-10-22T03:14:09;44.98;43.25;55.51;;
69670;Laerm;56897;52.120;5.192;2022-10-22T03:14:42;46.69;43.77;54.46;;
69670;Laerm;56897;52.120;5.192;2022-10-22T03:15:13;46.48;43.43;49.27;;
69670;Laerm;56897;52.120;5.192;2022-10-22T03:15:48;49.00;43.80;67.09;;